createdAt,value
2022-09-12T00:00:25.057Z,99.99
2022-09-12T00:01:25.039Z,99.99
2022-09-12T00:02:25.043Z,99.99
2022-09-12T00:03:24.980Z,99.99
2022-09-12T00:04:24.984Z,99.99
2022-09-12T00:05:24.943Z,99.99
2022-09-12T00:06:24.930Z,99.99
2022-09-12T00:07:24.966Z,99.99
2022-09-12T00:08:24.890Z,99.99
2022-09-12T00:09:24.867Z,99.99
2022-09-12T00:10:24.850Z,99.99
2022-09-12T00:11:24.822Z,99.99
2022-09-12T00:12:24.809Z,99.99
2022-09-12T00:13:24.813Z,99.99
2022-09-12T00:14:24.773Z,99.99
2022-09-12T00:15:24.758Z,99.99
2022-09-12T00:16:24.836Z,99.99
2022-09-12T00:17:24.731Z,99.99
2022-09-12T00:18:24.691Z,99.99
2022-09-12T00:19:24.677Z,99.99
2022-09-12T00:20:24.655Z,99.99
2022-09-12T00:21:24.646Z,99.99
2022-09-12T00:22:24.612Z,99.99
2022-09-12T00:23:24.618Z,99.99
2022-09-12T00:24:24.594Z,99.99
2022-09-12T00:25:24.553Z,99.99
2022-09-12T00:26:24.537Z,99.99
2022-09-12T00:27:24.517Z,99.99
2022-09-12T00:28:24.498Z,99.99
2022-09-12T00:29:24.481Z,99.99
2022-09-12T00:30:24.473Z,99.99
2022-09-12T00:31:24.467Z,99.99
2022-09-12T00:32:24.416Z,99.99
2022-09-12T00:33:24.403Z,99.99
2022-09-12T00:34:24.430Z,99.99
2022-09-12T00:35:24.382Z,99.99
2022-09-12T00:36:24.348Z,99.99
2022-09-12T00:37:24.322Z,99.99
2022-09-12T00:38:24.351Z,99.99
2022-09-12T00:39:24.287Z,99.99
2022-09-12T00:40:24.282Z,99.99
2022-09-12T00:41:24.246Z,99.99
2022-09-12T00:42:24.223Z,99.99
2022-09-12T00:43:24.206Z,99.99
2022-09-12T00:44:24.215Z,99.99
2022-09-12T00:45:24.204Z,99.99
2022-09-12T00:46:24.150Z,99.99
2022-09-12T00:47:24.130Z,99.99
2022-09-12T00:48:24.111Z,99.99
2022-09-12T00:49:24.086Z,99.99
2022-09-12T00:50:24.094Z,99.99
2022-09-12T00:51:24.047Z,99.99
2022-09-12T00:52:24.039Z,99.99
2022-09-12T00:53:24.013Z,99.99
2022-09-12T00:54:23.992Z,99.99
2022-09-12T00:55:23.996Z,99.99
2022-09-12T00:56:23.958Z,99.99
2022-09-12T00:57:23.947Z,99.99
2022-09-12T00:58:23.918Z,99.99
2022-09-12T00:59:23.899Z,99.99
2022-09-12T01:00:23.881Z,99.99
2022-09-12T01:01:23.918Z,99.99
2022-09-12T01:02:23.882Z,99.99
2022-09-12T01:03:23.936Z,99.99
2022-09-12T01:04:23.798Z,99.99
2022-09-12T01:05:23.779Z,99.99
2022-09-12T01:06:23.836Z,99.99
2022-09-12T01:07:23.736Z,99.99
2022-09-12T01:08:23.719Z,99.94
2022-09-12T01:09:23.713Z,99.99
2022-09-12T01:10:23.681Z,99.99
2022-09-12T01:11:23.660Z,99.99
2022-09-12T01:12:23.750Z,99.99
2022-09-12T01:13:23.618Z,99.99
2022-09-12T01:14:23.609Z,99.99
2022-09-12T01:15:23.584Z,99.99
2022-09-12T01:16:23.587Z,99.99
2022-09-12T01:17:23.546Z,99.99
2022-09-12T01:18:23.569Z,99.99
2022-09-12T01:19:23.522Z,99.99
2022-09-12T01:20:23.484Z,99.99
2022-09-12T01:21:23.467Z,99.99
2022-09-12T01:22:23.449Z,99.99
2022-09-12T01:23:23.440Z,99.99
2022-09-12T01:24:23.426Z,99.99
2022-09-12T01:25:23.408Z,99.99
2022-09-12T01:26:23.367Z,99.99
2022-09-12T01:27:23.356Z,99.99
2022-09-12T01:28:23.329Z,99.99
2022-09-12T01:29:23.330Z,99.99
2022-09-12T01:30:23.292Z,99.99
2022-09-12T01:31:23.271Z,99.99
2022-09-12T01:32:23.291Z,99.99
2022-09-12T01:33:23.232Z,99.99
2022-09-12T01:34:23.232Z,99.99
2022-09-12T01:35:23.213Z,99.99
2022-09-12T01:36:23.171Z,99.99
2022-09-12T01:37:23.161Z,99.99
2022-09-12T01:38:23.133Z,99.99
2022-09-12T01:39:23.115Z,99.99
2022-09-12T01:40:23.112Z,99.99
2022-09-12T01:41:23.103Z,99.99
2022-09-12T01:42:23.056Z,99.99
2022-09-12T01:43:23.038Z,99.99
2022-09-12T01:44:23.038Z,99.99
2022-09-12T01:45:23.060Z,99.99
2022-09-12T01:46:22.977Z,99.99
2022-09-12T01:47:22.979Z,99.99
2022-09-12T01:48:22.940Z,99.99
2022-09-12T01:49:22.922Z,99.99
2022-09-12T01:50:22.904Z,99.99
2022-09-12T01:51:22.885Z,99.99
2022-09-12T01:52:22.884Z,99.99
2022-09-12T01:53:22.844Z,99.99
2022-09-12T01:54:22.825Z,99.99
2022-09-12T01:55:22.809Z,99.99
2022-09-12T01:56:22.787Z,99.99
2022-09-12T01:57:22.789Z,99.99
2022-09-12T01:58:22.749Z,99.99
2022-09-12T01:59:22.730Z,99.99
2022-09-12T02:00:22.706Z,99.99
2022-09-12T02:01:22.728Z,99.99
2022-09-12T02:02:22.697Z,99.99
2022-09-12T02:03:22.669Z,99.99
2022-09-12T02:04:22.635Z,99.99
2022-09-12T02:05:22.614Z,99.99
2022-09-12T02:06:22.592Z,99.99
2022-09-12T02:07:22.575Z,99.99
2022-09-12T02:08:22.570Z,99.99
2022-09-12T02:09:22.556Z,99.99
2022-09-12T02:10:22.510Z,99.99
2022-09-12T02:11:22.496Z,99.99
2022-09-12T02:12:22.473Z,99.99
2022-09-12T02:13:22.469Z,99.99
2022-09-12T02:14:22.433Z,99.99
2022-09-12T02:15:22.414Z,99.99
2022-09-12T02:16:22.446Z,99.99
2022-09-12T02:17:22.374Z,99.99
2022-09-12T02:18:22.377Z,99.99
2022-09-12T02:19:22.359Z,99.99
2022-09-12T02:20:44.447Z,99.99
2022-09-12T02:21:22.298Z,99.99
2022-09-12T02:22:22.286Z,99.99
2022-09-12T02:23:22.263Z,99.99
2022-09-12T02:24:22.263Z,99.99
2022-09-12T02:25:22.220Z,99.99
2022-09-12T02:26:22.225Z,99.99
2022-09-12T02:27:22.185Z,99.99
2022-09-12T02:28:22.171Z,99.99
2022-09-12T02:29:22.148Z,99.99
2022-09-12T02:30:22.209Z,99.99
2022-09-12T02:31:22.111Z,99.99
2022-09-12T02:32:22.094Z,99.99
2022-09-12T02:33:22.071Z,99.99
2022-09-12T02:34:22.069Z,99.99
2022-09-12T02:35:22.034Z,99.99
2022-09-12T02:36:22.028Z,99.99
2022-09-12T02:37:21.986Z,99.99
2022-09-12T02:38:22.030Z,99.99
2022-09-12T02:39:21.949Z,99.99
2022-09-12T02:40:21.959Z,99.99
2022-09-12T02:41:21.929Z,99.99
2022-09-12T02:42:21.902Z,99.99
2022-09-12T02:43:21.970Z,99.99
2022-09-12T02:44:21.858Z,99.99
2022-09-12T02:45:21.855Z,99.99
2022-09-12T02:46:21.814Z,99.99
2022-09-12T02:47:21.796Z,99.99
2022-09-12T02:48:21.778Z,99.99
2022-09-12T02:49:21.786Z,99.99
2022-09-12T02:50:21.747Z,99.99
2022-09-12T02:51:23.837Z,99.99
2022-09-12T02:52:21.726Z,99.99
2022-09-12T02:53:21.680Z,99.99
2022-09-12T02:54:21.660Z,99.99
2022-09-12T02:55:21.642Z,99.99
2022-09-12T02:56:21.644Z,99.99
2022-09-12T02:57:23.060Z,99.99
2022-09-12T02:58:21.585Z,99.99
2022-09-12T02:59:21.567Z,99.99
2022-09-12T03:00:21.540Z,99.99
2022-09-12T03:01:21.561Z,99.99
2022-09-12T03:02:21.556Z,99.99
2022-09-12T03:03:21.493Z,99.99
2022-09-12T03:04:21.475Z,99.99
2022-09-12T03:05:21.482Z,99.99
2022-09-12T03:06:21.425Z,99.99
2022-09-12T03:07:21.415Z,99.99
2022-09-12T03:08:21.398Z,99.99
2022-09-12T03:09:21.369Z,99.99
2022-09-12T03:10:21.373Z,99.99
2022-09-12T03:11:21.330Z,99.90
2022-09-12T03:12:21.308Z,99.99
2022-09-12T03:13:21.291Z,99.99
2022-09-12T03:14:21.276Z,99.85
2022-09-12T03:15:21.279Z,99.90
2022-09-12T03:16:21.270Z,99.99
2022-09-12T03:17:21.210Z,99.99
2022-09-12T03:18:21.194Z,99.90
2022-09-12T03:19:21.174Z,99.29
2022-09-12T03:20:21.160Z,99.69
2022-09-12T03:21:21.192Z,99.29
2022-09-12T03:22:21.137Z,99.90
2022-09-12T03:23:21.096Z,98.88
2022-09-12T03:24:21.081Z,99.64
2022-09-12T03:25:21.065Z,99.64
2022-09-12T03:26:21.057Z,99.49
2022-09-12T03:27:21.034Z,99.60
2022-09-12T03:28:21.001Z,99.74
2022-09-12T03:29:20.986Z,99.60
2022-09-12T03:30:20.997Z,99.49
2022-09-12T03:31:20.987Z,99.60
2022-09-12T03:32:20.927Z,99.49
2022-09-12T03:33:20.903Z,99.44
2022-09-12T03:34:20.884Z,99.69
2022-09-12T03:35:23.037Z,99.64
2022-09-12T03:36:20.849Z,99.49
2022-09-12T03:37:20.840Z,99.60
2022-09-12T03:38:20.809Z,99.54
2022-09-12T03:39:20.784Z,99.29
2022-09-12T03:40:20.768Z,99.64
2022-09-12T03:41:20.743Z,99.64
2022-09-12T03:42:20.766Z,99.29
2022-09-12T03:43:20.707Z,99.64
2022-09-12T03:44:20.690Z,99.60
2022-09-12T03:45:20.667Z,99.60
2022-09-12T03:46:20.653Z,99.49
2022-09-12T03:47:20.630Z,99.49
2022-09-12T03:48:20.623Z,99.64
2022-09-12T03:49:20.622Z,99.39
2022-09-12T03:50:20.569Z,99.39
2022-09-12T03:51:20.556Z,99.49
2022-09-12T03:52:20.535Z,99.29
2022-09-12T03:53:20.513Z,99.29
2022-09-12T03:54:20.510Z,99.64
2022-09-12T03:55:20.475Z,99.49
2022-09-12T03:56:20.457Z,99.49
2022-09-12T03:57:20.440Z,99.80
2022-09-12T03:58:20.442Z,99.19
2022-09-12T03:59:20.414Z,99.39
2022-09-12T04:00:20.387Z,99.24
2022-09-12T04:01:20.389Z,99.13
2022-09-12T04:02:20.368Z,99.04
2022-09-12T04:03:20.318Z,99.54
2022-09-12T04:04:20.318Z,99.54
2022-09-12T04:05:20.304Z,99.64
2022-09-12T04:06:20.259Z,99.54
2022-09-12T04:07:20.244Z,99.54
2022-09-12T04:08:20.219Z,99.44
2022-09-12T04:09:20.202Z,99.74
2022-09-12T04:10:20.206Z,99.54
2022-09-12T04:11:20.163Z,99.64
2022-09-12T04:12:20.159Z,99.64
2022-09-12T04:13:20.127Z,99.54
2022-09-12T04:14:20.099Z,99.54
2022-09-12T04:15:20.099Z,99.33
2022-09-12T04:16:20.107Z,99.54
2022-09-12T04:17:20.058Z,99.24
2022-09-12T04:18:20.029Z,99.44
2022-09-12T04:19:20.016Z,99.54
2022-09-12T04:20:19.993Z,99.44
2022-09-12T04:21:19.963Z,99.04
2022-09-12T04:22:19.971Z,99.33
2022-09-12T04:23:19.929Z,99.64
2022-09-12T04:24:19.909Z,99.54
2022-09-12T04:25:19.891Z,99.85
2022-09-12T04:26:19.869Z,99.54
2022-09-12T04:27:19.865Z,99.54
2022-09-12T04:28:19.834Z,99.44
2022-09-12T04:29:19.808Z,99.54
2022-09-12T04:30:19.793Z,99.64
2022-09-12T04:31:19.789Z,99.54
2022-09-12T04:32:19.766Z,99.44
2022-09-12T04:33:19.736Z,99.54
2022-09-12T04:34:19.712Z,99.64
2022-09-12T04:35:19.688Z,99.64
2022-09-12T04:36:19.695Z,99.79
2022-09-12T04:37:19.655Z,99.54
2022-09-12T04:38:19.634Z,99.54
2022-09-12T04:39:19.618Z,99.69
2022-09-12T04:40:19.598Z,99.64
2022-09-12T04:41:19.591Z,99.33
2022-09-12T04:42:19.568Z,99.33
2022-09-12T04:43:19.534Z,99.44
2022-09-12T04:44:19.520Z,99.54
2022-09-12T04:45:19.501Z,99.04
2022-09-12T04:46:19.495Z,99.49
2022-09-12T04:47:19.474Z,99.44
2022-09-12T04:48:19.435Z,99.58
2022-09-12T04:49:19.508Z,99.44
2022-09-12T04:50:19.411Z,99.69
2022-09-12T04:51:19.381Z,99.49
2022-09-12T04:52:19.359Z,99.49
2022-09-12T04:53:19.345Z,99.13
2022-09-12T04:54:19.426Z,99.54
2022-09-12T04:55:19.303Z,99.85
2022-09-12T04:56:19.287Z,99.33
2022-09-12T04:57:19.284Z,99.18
2022-09-12T04:58:19.274Z,99.69
2022-09-12T04:59:19.222Z,99.74
2022-09-12T05:00:19.199Z,99.69
2022-09-12T05:01:19.245Z,99.64
2022-09-12T05:02:19.231Z,99.49
2022-09-12T05:03:19.148Z,99.69
2022-09-12T05:04:19.132Z,99.44
2022-09-12T05:05:19.109Z,99.69
2022-09-12T05:06:19.084Z,99.54
2022-09-12T05:07:19.082Z,99.64
2022-09-12T05:08:19.043Z,99.33
2022-09-12T05:09:19.053Z,99.44
2022-09-12T05:10:19.004Z,99.69
2022-09-12T05:11:24.098Z,99.44
2022-09-12T05:12:18.966Z,99.44
2022-09-12T05:13:18.944Z,99.69
2022-09-12T05:14:18.925Z,99.64
2022-09-12T05:15:18.931Z,99.74
2022-09-12T05:16:19.001Z,99.64
2022-09-12T05:17:18.864Z,99.04
2022-09-12T05:18:18.854Z,99.44
2022-09-12T05:19:18.853Z,99.33
2022-09-12T05:20:18.809Z,99.33
2022-09-12T05:21:18.784Z,99.44
2022-09-12T05:22:18.773Z,99.54
2022-09-12T05:23:18.750Z,98.93
2022-09-12T05:24:18.727Z,99.04
2022-09-12T05:25:18.735Z,99.44
2022-09-12T05:26:18.716Z,99.54
2022-09-12T05:27:18.671Z,99.04
2022-09-12T05:28:18.659Z,99.04
2022-09-12T05:29:18.631Z,98.93
2022-09-12T05:30:18.633Z,99.04
2022-09-12T05:31:18.593Z,98.93
2022-09-12T05:32:18.575Z,98.93
2022-09-12T05:33:20.965Z,99.04
2022-09-12T05:34:18.546Z,98.83
2022-09-12T05:35:18.529Z,98.58
2022-09-12T05:36:18.501Z,98.88
2022-09-12T05:37:18.470Z,98.79
2022-09-12T05:38:18.454Z,98.73
2022-09-12T05:39:18.448Z,98.63
2022-09-12T05:40:18.415Z,98.58
2022-09-12T05:41:21.951Z,98.48
2022-09-12T05:42:18.377Z,98.38
2022-09-12T05:43:18.356Z,98.54
2022-09-12T05:44:18.354Z,98.38
2022-09-12T05:45:18.323Z,98.28
2022-09-12T05:46:18.295Z,98.74
2022-09-12T05:47:18.276Z,98.33
2022-09-12T05:48:18.264Z,98.43
2022-09-12T05:49:18.253Z,98.28
2022-09-12T05:50:18.220Z,98.54
2022-09-12T05:51:18.199Z,98.23
2022-09-12T05:52:18.184Z,97.72
2022-09-12T05:53:18.157Z,98.03
2022-09-12T05:54:18.164Z,97.72
2022-09-12T05:55:18.120Z,98.13
2022-09-12T05:56:18.123Z,98.03
2022-09-12T05:57:18.104Z,98.23
2022-09-12T05:58:18.067Z,97.72
2022-09-12T05:59:18.046Z,97.92
2022-09-12T06:00:18.054Z,98.03
2022-09-12T06:01:18.149Z,98.23
2022-09-12T06:02:18.019Z,97.92
2022-09-12T06:03:17.972Z,97.67
2022-09-12T06:04:17.950Z,97.92
2022-09-12T06:05:17.929Z,97.88
2022-09-12T06:06:17.919Z,97.92
2022-09-12T06:07:17.913Z,97.42
2022-09-12T06:08:17.875Z,97.38
2022-09-12T06:09:17.858Z,97.67
2022-09-12T06:10:17.832Z,97.47
2022-09-12T06:11:17.813Z,97.17
2022-09-12T06:12:17.811Z,97.27
2022-09-12T06:13:17.770Z,97.88
2022-09-12T06:14:17.806Z,96.66
2022-09-12T06:15:17.734Z,96.87
2022-09-12T06:16:17.766Z,97.07
2022-09-12T06:17:18.651Z,96.36
2022-09-12T06:18:17.674Z,96.26
2022-09-12T06:19:17.667Z,96.46
2022-09-12T06:20:17.660Z,96.66
2022-09-12T06:21:17.629Z,95.86
2022-09-12T06:22:17.616Z,96.06
2022-09-12T06:23:17.583Z,95.91
2022-09-12T06:24:17.599Z,95.86
2022-09-12T06:25:17.557Z,95.50
2022-09-12T06:26:17.520Z,95.40
2022-09-12T06:27:17.506Z,95.45
2022-09-12T06:28:17.487Z,95.00
2022-09-12T06:29:17.477Z,95.20
2022-09-12T06:30:17.485Z,95.30
2022-09-12T06:31:17.431Z,95.10
2022-09-12T06:32:17.408Z,95.61
2022-09-12T06:33:17.401Z,95.46
2022-09-12T06:34:17.371Z,94.95
2022-09-12T06:35:17.370Z,94.04
2022-09-12T06:36:17.328Z,94.14
2022-09-12T06:37:17.312Z,94.00
2022-09-12T06:38:17.304Z,94.14
2022-09-12T06:39:17.308Z,94.00
2022-09-12T06:40:17.345Z,94.04
2022-09-12T06:41:17.247Z,93.19
2022-09-12T06:42:17.238Z,93.39
2022-09-12T06:43:17.214Z,92.68
2022-09-12T06:44:17.183Z,92.68
2022-09-12T06:45:17.183Z,92.99
2022-09-12T06:47:59.124Z,92.13
2022-09-12T06:48:59.088Z,91.83
2022-09-12T06:49:59.065Z,92.13
2022-09-12T06:50:59.044Z,92.24
2022-09-12T06:51:59.026Z,92.24
2022-09-12T06:52:59.028Z,92.54
2022-09-12T06:53:58.987Z,91.69
2022-09-12T06:54:58.973Z,91.89
2022-09-12T06:55:58.979Z,91.32
2022-09-12T06:56:58.955Z,92.29
2022-09-12T06:57:58.933Z,92.19
2022-09-12T06:58:58.908Z,92.19
2022-09-12T06:59:58.876Z,91.99
2022-09-12T07:00:59.193Z,92.60
2022-09-12T07:01:58.950Z,92.40
2022-09-12T07:02:58.819Z,92.19
2022-09-12T07:03:58.824Z,91.58
2022-09-12T07:04:58.785Z,91.38
2022-09-12T07:05:58.759Z,91.69
2022-09-12T07:06:58.746Z,91.49
2022-09-12T07:07:58.724Z,91.44
2022-09-12T07:08:58.723Z,91.64
2022-09-12T07:09:58.687Z,91.64
2022-09-12T07:10:58.671Z,91.54
2022-09-12T07:11:58.666Z,90.83
2022-09-12T07:12:58.635Z,90.94
2022-09-12T07:13:58.705Z,91.03
2022-09-12T07:14:58.792Z,91.14
2022-09-12T07:15:58.574Z,90.63
2022-09-12T07:16:58.583Z,91.34
2022-09-12T07:17:58.538Z,90.94
2022-09-12T07:18:58.521Z,90.94
2022-09-12T07:19:58.525Z,91.24
2022-09-12T07:20:58.485Z,91.14
2022-09-12T07:21:58.866Z,91.14
2022-09-12T07:22:58.440Z,91.34
2022-09-12T07:23:58.434Z,91.54
2022-09-12T07:24:58.423Z,91.44
2022-09-12T07:25:58.387Z,91.14
2022-09-12T07:26:58.470Z,91.03
2022-09-12T07:27:58.349Z,91.14
2022-09-12T07:29:18.670Z,91.03
2022-09-12T07:29:58.343Z,90.73
2022-09-12T07:30:58.316Z,90.53
2022-09-12T07:31:58.283Z,89.98
2022-09-12T07:32:58.255Z,89.98
2022-09-12T07:33:58.241Z,90.39
2022-09-12T07:34:58.222Z,90.59
2022-09-12T07:35:58.225Z,90.28
2022-09-12T07:36:58.185Z,89.58
2022-09-12T07:37:58.174Z,89.68
2022-09-12T07:38:58.148Z,89.98
2022-09-12T07:39:58.207Z,89.23
2022-09-12T07:40:58.110Z,89.34
2022-09-12T07:41:58.110Z,89.48
2022-09-12T07:42:58.084Z,88.73
2022-09-12T07:43:58.068Z,88.73
2022-09-12T07:44:58.035Z,88.53
2022-09-12T07:45:58.064Z,88.53
2022-09-12T07:46:57.996Z,88.32
2022-09-12T07:47:57.995Z,88.12
2022-09-12T07:48:58.045Z,87.82
2022-09-12T07:49:58.015Z,88.02
2022-09-12T07:50:57.942Z,88.12
2022-09-12T07:51:57.943Z,88.32
2022-09-12T07:52:57.882Z,88.12
2022-09-12T07:53:57.863Z,88.43
2022-09-12T07:54:57.852Z,87.98
2022-09-12T07:55:57.831Z,88.02
2022-09-12T07:56:57.842Z,87.48
2022-09-12T07:57:58.279Z,87.58
2022-09-12T07:58:57.776Z,87.52
2022-09-12T07:59:57.810Z,87.88
2022-09-12T08:00:57.739Z,87.52
2022-09-12T08:01:57.724Z,87.82
2022-09-12T08:02:57.751Z,87.78
2022-09-12T08:03:58.302Z,87.98
2022-09-12T08:04:57.689Z,87.98
2022-09-12T08:05:57.653Z,88.08
2022-09-12T08:06:57.647Z,87.78
2022-09-12T08:07:57.907Z,87.48
2022-09-12T08:08:57.605Z,87.74
2022-09-12T08:09:57.594Z,88.14
2022-09-12T08:10:57.571Z,87.23
2022-09-12T08:11:57.546Z,88.24
2022-09-12T08:12:57.522Z,87.84
2022-09-12T08:13:57.811Z,87.63
2022-09-12T08:14:57.517Z,87.13
2022-09-12T08:15:57.533Z,87.13
2022-09-12T08:16:57.457Z,86.73
2022-09-12T08:17:57.431Z,87.13
2022-09-12T08:18:57.418Z,86.89
2022-09-12T08:19:57.402Z,86.99
2022-09-12T08:20:57.383Z,86.99
2022-09-12T08:21:57.352Z,87.19
2022-09-12T08:22:57.358Z,86.85
2022-09-12T08:23:57.319Z,86.95
2022-09-12T08:24:57.299Z,86.85
2022-09-12T08:25:57.283Z,86.35
2022-09-12T08:26:57.262Z,86.55
2022-09-12T08:27:57.270Z,86.65
2022-09-12T08:28:57.224Z,86.61
2022-09-12T08:29:57.213Z,86.00
2022-09-12T08:30:57.231Z,86.61
2022-09-12T08:31:57.522Z,85.50
2022-09-12T08:32:57.179Z,85.50
2022-09-12T08:33:57.130Z,85.30
2022-09-12T08:34:57.116Z,85.05
2022-09-12T08:35:57.109Z,84.95
2022-09-12T08:36:57.079Z,85.50
2022-09-12T08:37:57.082Z,85.25
2022-09-12T08:38:59.607Z,84.65
2022-09-12T08:39:57.161Z,84.21
2022-09-12T08:40:57.030Z,83.47
2022-09-12T08:41:57.076Z,83.76
2022-09-12T08:42:56.972Z,83.17
2022-09-12T08:43:57.224Z,82.36
2022-09-12T08:44:56.934Z,82.92
2022-09-12T08:45:56.998Z,83.03
2022-09-12T08:46:56.902Z,81.27
2022-09-12T08:47:56.882Z,81.07
2022-09-12T08:48:56.888Z,81.54
2022-09-12T08:49:56.853Z,80.83
2022-09-12T08:50:56.825Z,79.99
2022-09-12T08:51:56.838Z,80.24
2022-09-12T08:52:56.793Z,80.63
2022-09-12T08:53:56.812Z,80.40
2022-09-12T08:54:56.758Z,79.80
2022-09-12T08:55:56.742Z,79.53
2022-09-12T08:56:56.725Z,79.99
2022-09-12T08:57:56.721Z,79.69
2022-09-12T08:58:56.688Z,79.16
2022-09-12T08:59:56.672Z,78.96
2022-09-12T09:00:56.654Z,78.45
2022-09-12T09:01:56.659Z,79.36
2022-09-12T09:02:56.713Z,79.05
2022-09-12T09:03:56.614Z,77.95
2022-09-12T09:06:38.664Z,78.09
2022-09-12T09:07:38.631Z,78.49
2022-09-12T09:08:38.634Z,78.55
2022-09-12T09:09:38.614Z,78.59
2022-09-12T09:10:38.579Z,78.96
2022-09-12T09:11:38.559Z,78.29
2022-09-12T09:12:38.541Z,78.05
2022-09-12T09:13:38.527Z,77.75
2022-09-12T09:14:38.525Z,77.45
2022-09-12T09:15:38.522Z,77.51
2022-09-12T09:16:38.480Z,78.02
2022-09-12T09:17:38.493Z,77.17
2022-09-12T09:18:38.441Z,75.93
2022-09-12T09:19:38.446Z,75.20
2022-09-12T09:20:38.419Z,74.66
2022-09-12T09:21:38.390Z,73.66
2022-09-12T09:22:38.377Z,73.43
2022-09-12T09:23:38.358Z,73.53
2022-09-12T09:24:38.367Z,72.09
2022-09-12T09:25:38.367Z,72.59
2022-09-12T09:26:38.310Z,70.96
2022-09-12T09:27:41.275Z,70.62
2022-09-12T09:28:38.290Z,69.99
2022-09-12T09:29:38.268Z,69.86
2022-09-12T09:30:38.339Z,69.09
2022-09-12T09:31:38.226Z,68.63
2022-09-12T09:32:38.216Z,67.33
2022-09-12T09:33:38.195Z,64.84
2022-09-12T09:34:38.185Z,66.20
2022-09-12T09:35:38.190Z,64.98
2022-09-12T09:36:38.158Z,64.28
2022-09-12T09:37:38.134Z,65.80
2022-09-12T09:38:38.133Z,67.77
2022-09-12T09:39:38.184Z,65.64
2022-09-12T09:40:38.107Z,65.28
2022-09-12T09:41:38.093Z,64.91
2022-09-12T09:42:38.054Z,65.44
2022-09-12T09:43:38.038Z,65.74
2022-09-12T09:44:38.023Z,64.18
2022-09-12T09:45:38.009Z,62.04
2022-09-12T09:46:38.084Z,61.11
2022-09-12T09:47:37.982Z,61.11
2022-09-12T09:48:37.974Z,61.51
2022-09-12T09:49:37.958Z,60.55
2022-09-12T09:50:37.962Z,62.89
2022-09-12T09:51:37.926Z,62.07
2022-09-12T09:52:37.914Z,61.54
2022-09-12T09:53:37.894Z,62.37
2022-09-12T09:54:37.888Z,63.43
2022-09-12T09:55:37.900Z,60.69
2022-09-12T09:56:37.877Z,60.13
2022-09-12T09:57:37.846Z,58.61
2022-09-12T09:58:37.838Z,58.84
2022-09-12T09:59:37.815Z,58.44
2022-09-12T10:00:37.828Z,57.99
2022-09-12T10:01:37.849Z,58.59
2022-09-12T10:02:37.832Z,57.34
2022-09-12T10:03:37.769Z,57.18
2022-09-12T10:04:41.235Z,55.87
2022-09-12T10:05:37.763Z,54.96
2022-09-12T10:06:37.744Z,53.72
2022-09-12T10:07:37.751Z,56.90
2022-09-12T10:08:37.713Z,57.37
2022-09-12T10:09:37.703Z,56.02
2022-09-12T10:10:37.689Z,55.80
2022-09-12T10:11:37.677Z,53.05
2022-09-12T10:12:37.683Z,54.29
2022-09-12T10:13:37.654Z,55.76
2022-09-12T10:14:37.644Z,58.32
2022-09-12T10:15:37.658Z,57.82
2022-09-12T10:16:37.619Z,55.76
2022-09-12T10:17:37.629Z,54.24
2022-09-12T10:18:37.600Z,55.01
2022-09-12T10:19:37.606Z,53.97
2022-09-12T10:20:37.592Z,52.86
2022-09-12T10:21:40.978Z,53.20
2022-09-12T10:22:37.550Z,53.80
2022-09-12T10:23:37.552Z,53.00
2022-09-12T10:24:37.530Z,51.89
2022-09-12T10:25:37.555Z,52.17
2022-09-12T10:26:37.523Z,52.17
2022-09-12T10:27:37.501Z,50.98
2022-09-12T10:28:37.492Z,52.95
2022-09-12T10:29:37.498Z,52.51
2022-09-12T10:30:37.479Z,54.10
2022-09-12T10:31:37.460Z,55.94
2022-09-12T10:32:37.455Z,56.80
2022-09-12T10:33:37.440Z,55.68
2022-09-12T10:34:37.427Z,56.83
2022-09-12T10:35:37.432Z,57.68
2022-09-12T10:36:37.408Z,58.25
2022-09-12T10:37:37.403Z,57.82
2022-09-12T10:38:37.387Z,58.09
2022-09-12T10:39:37.558Z,56.95
2022-09-12T10:40:37.367Z,55.87
2022-09-12T10:41:37.378Z,54.88
2022-09-12T10:42:37.356Z,53.89
2022-09-12T10:43:37.356Z,53.00
2022-09-12T10:44:37.329Z,53.50
2022-09-12T10:45:37.339Z,52.88
2022-09-12T10:46:37.336Z,51.79
2022-09-12T10:47:37.299Z,53.08
2022-09-12T10:48:37.291Z,55.56
2022-09-12T10:49:37.286Z,55.61
2022-09-12T10:50:37.285Z,56.78
2022-09-12T10:51:37.260Z,58.27
2022-09-12T10:52:37.270Z,57.08
2022-09-12T10:53:37.244Z,58.07
2022-09-12T10:54:37.241Z,57.55
2022-09-12T10:55:37.228Z,55.71
2022-09-12T10:56:37.213Z,53.67
2022-09-12T10:57:37.218Z,54.44
2022-09-12T10:58:37.197Z,53.92
2022-09-12T10:59:37.179Z,54.91
2022-09-12T11:00:37.176Z,54.17
2022-09-12T11:01:37.223Z,54.30
2022-09-12T11:02:37.220Z,53.08
2022-09-12T11:03:37.165Z,52.07
2022-09-12T11:04:37.135Z,52.86
2022-09-12T11:05:37.135Z,53.60
2022-09-12T11:06:37.120Z,54.00
2022-09-12T11:07:37.109Z,55.19
2022-09-12T11:08:37.119Z,54.27
2022-09-12T11:09:37.110Z,54.05
2022-09-12T11:10:40.461Z,53.38
2022-09-12T11:11:37.153Z,53.92
2022-09-12T11:12:37.063Z,53.85
2022-09-12T11:13:37.105Z,51.82
2022-09-12T11:14:37.066Z,52.91
2022-09-12T11:15:37.071Z,54.15
2022-09-12T11:16:37.022Z,55.54
2022-09-12T11:17:37.011Z,55.98
2022-09-12T11:18:37.008Z,55.46
2022-09-12T11:19:37.012Z,55.70
2022-09-12T11:20:36.980Z,54.39
2022-09-12T11:21:36.975Z,52.93
2022-09-12T11:22:36.962Z,52.96
2022-09-12T11:23:36.951Z,53.50
2022-09-12T11:24:36.943Z,52.84
2022-09-12T11:25:36.974Z,54.05
2022-09-12T11:26:36.929Z,53.23
2022-09-12T11:27:36.921Z,52.29
2022-09-12T11:28:36.905Z,51.82
2022-09-12T11:29:36.892Z,49.60
2022-09-12T11:30:36.908Z,49.37
2022-09-12T11:31:36.892Z,49.03
2022-09-12T11:32:36.866Z,46.84
2022-09-12T11:33:40.855Z,44.96
2022-09-12T11:34:36.845Z,44.74
2022-09-12T11:35:36.859Z,43.15
2022-09-12T11:36:36.831Z,44.23
2022-09-12T11:37:36.846Z,42.85
2022-09-12T11:38:36.802Z,42.07
2022-09-12T11:41:18.731Z,44.55
2022-09-12T11:42:18.722Z,45.92
2022-09-12T11:43:18.692Z,46.00
2022-09-12T11:44:18.683Z,45.45
2022-09-12T11:45:18.680Z,46.04
2022-09-12T11:46:18.681Z,46.33
2022-09-12T11:47:18.657Z,46.73
2022-09-12T11:48:18.658Z,47.32
2022-09-12T11:49:18.643Z,46.22
2022-09-12T11:50:18.626Z,46.41
2022-09-12T11:51:18.617Z,46.88
2022-09-12T11:52:18.603Z,46.89
2022-09-12T11:53:18.593Z,46.78
2022-09-12T11:54:18.594Z,46.85
2022-09-12T11:55:18.573Z,46.33
2022-09-12T11:56:18.554Z,46.41
2022-09-12T11:57:18.551Z,46.00
2022-09-12T11:58:18.540Z,44.69
2022-09-12T11:59:18.555Z,44.87
2022-09-12T12:00:18.527Z,44.81
2022-09-12T12:01:18.511Z,44.61
2022-09-12T12:02:18.528Z,46.00
2022-09-12T12:03:18.518Z,45.32
2022-09-12T12:04:18.470Z,45.62
2022-09-12T12:05:18.494Z,46.51
2022-09-12T12:06:18.453Z,46.78
2022-09-12T12:07:18.455Z,46.63
2022-09-12T12:08:18.436Z,46.67
2022-09-12T12:09:18.425Z,47.07
2022-09-12T12:10:18.434Z,46.85
2022-09-12T12:11:18.422Z,46.53
2022-09-12T12:12:18.386Z,46.63
2022-09-12T12:13:18.383Z,46.63
2022-09-12T12:14:18.389Z,46.22
2022-09-12T12:15:18.370Z,46.96
2022-09-12T12:16:18.390Z,47.31
2022-09-12T12:17:18.344Z,43.74
2022-09-12T12:18:18.325Z,43.62
2022-09-12T12:19:18.314Z,42.97
2022-09-12T12:20:18.307Z,45.06
2022-09-12T12:21:18.293Z,44.81
2022-09-12T12:22:18.296Z,47.03
2022-09-12T12:23:18.283Z,46.63
2022-09-12T12:24:18.261Z,46.36
2022-09-12T12:25:21.580Z,46.75
2022-09-12T12:26:18.242Z,47.40
2022-09-12T12:27:18.254Z,45.89
2022-09-12T12:28:18.219Z,45.67
2022-09-12T12:29:18.217Z,43.96
2022-09-12T12:30:18.196Z,44.03
2022-09-12T12:31:18.369Z,43.84
2022-09-12T12:32:18.178Z,43.44
2022-09-12T12:33:18.186Z,43.82
2022-09-12T12:34:18.158Z,44.65
2022-09-12T12:35:18.155Z,44.96
2022-09-12T12:36:18.140Z,44.89
2022-09-12T12:37:18.136Z,44.91
2022-09-12T12:38:18.141Z,44.81
2022-09-12T12:39:18.119Z,45.18
2022-09-12T12:40:18.143Z,46.69
2022-09-12T12:41:18.073Z,45.70
2022-09-12T12:42:20.093Z,45.38
2022-09-12T12:43:18.065Z,44.96
2022-09-12T12:44:18.061Z,44.06
2022-09-12T12:45:18.033Z,44.25
2022-09-12T12:46:18.080Z,43.64
2022-09-12T12:47:18.017Z,45.31
2022-09-12T12:48:18.012Z,45.14
2022-09-12T12:49:18.020Z,45.34
2022-09-12T12:50:17.972Z,45.31
2022-09-12T12:51:17.974Z,43.64
2022-09-12T12:52:17.952Z,44.62
2022-09-12T12:53:17.940Z,43.84
2022-09-12T12:54:17.951Z,43.42
2022-09-12T12:55:17.922Z,43.91
2022-09-12T12:56:17.905Z,44.01
2022-09-12T12:57:17.896Z,43.13